createdAt,value
2022-08-04T00:02:00.834Z,2.60
2022-08-04T00:04:55.920Z,2.70
2022-08-04T00:08:09.975Z,2.50
2022-08-04T00:10:40.501Z,2.60
2022-08-04T00:13:08.516Z,2.50
2022-08-04T00:15:37.476Z,2.50
2022-08-04T00:18:08.238Z,2.70
2022-08-04T00:20:41.045Z,2.30
2022-08-04T00:23:09.375Z,2.50
2022-08-04T00:25:41.540Z,2.80
2022-08-04T00:28:09.257Z,2.40
2022-08-04T00:30:36.553Z,2.50
2022-08-04T00:33:03.805Z,2.70
2022-08-04T00:35:33.072Z,2.60
2022-08-04T00:38:00.294Z,2.70
2022-08-04T00:41:17.904Z,2.80
2022-08-04T00:44:10.424Z,2.20
2022-08-04T00:47:00.783Z,2.60
2022-08-04T00:49:45.541Z,3.00
2022-08-04T00:52:45.267Z,2.60
2022-08-04T00:55:33.830Z,2.50
2022-08-04T00:58:16.557Z,2.60
2022-08-04T01:01:04.045Z,2.70
2022-08-04T01:04:04.883Z,2.50
2022-08-04T01:06:40.653Z,2.40
2022-08-04T01:09:28.099Z,2.50
2022-08-04T01:12:19.176Z,2.40
2022-08-04T01:15:06.818Z,2.70
2022-08-04T01:17:36.298Z,2.70
2022-08-04T01:20:11.160Z,2.60
2022-08-04T01:23:26.814Z,2.90
2022-08-04T01:26:41.950Z,2.70
2022-08-04T01:29:16.344Z,3.10
2022-08-04T01:32:04.551Z,3.20
2022-08-04T01:34:42.705Z,3.30
2022-08-04T01:37:25.783Z,2.80
2022-08-04T01:40:04.597Z,3.00
2022-08-04T01:42:34.356Z,2.70
2022-08-04T01:45:08.255Z,2.60
2022-08-04T01:47:38.062Z,2.70
2022-08-04T01:50:09.549Z,3.10
2022-08-04T01:52:39.120Z,2.70
2022-08-04T01:55:10.141Z,2.40
2022-08-04T01:57:52.261Z,2.60
2022-08-04T02:00:23.997Z,2.40
2022-08-04T02:02:51.856Z,2.80
2022-08-04T02:05:22.922Z,2.40
2022-08-04T02:08:36.174Z,3.60
2022-08-04T02:11:19.060Z,2.70
2022-08-04T02:14:08.804Z,2.70
2022-08-04T02:16:52.437Z,2.80
2022-08-04T02:19:50.963Z,2.40
2022-08-04T02:22:19.264Z,2.50
2022-08-04T02:24:50.552Z,2.50
2022-08-04T02:27:29.654Z,2.60
2022-08-04T02:30:18.486Z,2.50
2022-08-04T02:32:49.168Z,2.60
2022-08-04T02:35:22.024Z,2.70
2022-08-04T02:38:06.879Z,2.50
2022-08-04T02:40:34.454Z,2.50
2022-08-04T02:43:04.327Z,2.40
2022-08-04T02:45:36.924Z,2.50
2022-08-04T02:48:28.847Z,2.60
2022-08-04T02:50:54.511Z,3.00
2022-08-04T02:53:25.760Z,3.00
2022-08-04T02:55:56.639Z,3.00
2022-08-04T02:58:26.385Z,2.90
2022-08-04T03:00:53.095Z,3.00
2022-08-04T03:04:24.461Z,3.00
2022-08-04T03:07:31.679Z,3.40
2022-08-04T03:10:17.103Z,3.00
2022-08-04T03:13:37.211Z,3.40
2022-08-04T03:17:06.277Z,2.80
2022-08-04T03:20:00.835Z,3.10
2022-08-04T03:23:12.047Z,3.00
2022-08-04T03:25:56.509Z,3.00
2022-08-04T03:29:36.773Z,2.90
2022-08-04T03:32:41.888Z,2.80
2022-08-04T03:36:00.239Z,3.00
2022-08-04T03:39:07.633Z,2.90
2022-08-04T03:42:14.240Z,3.40
2022-08-04T03:45:38.558Z,3.10
2022-08-04T03:48:44.752Z,2.90
2022-08-04T03:51:36.643Z,2.90
2022-08-04T03:54:28.728Z,3.00
2022-08-04T03:57:20.037Z,3.00
2022-08-04T04:00:09.406Z,3.10
2022-08-04T04:03:00.170Z,2.90
2022-08-04T04:05:59.819Z,2.80
2022-08-04T04:09:08.095Z,2.80
2022-08-04T04:12:24.992Z,3.00
2022-08-04T04:15:14.741Z,2.70
2022-08-04T04:18:13.911Z,2.70
2022-08-04T04:21:11.825Z,2.70
2022-08-04T04:23:56.682Z,3.20
2022-08-04T04:27:10.191Z,2.90
2022-08-04T04:29:52.037Z,2.80
2022-08-04T04:32:23.987Z,2.90
2022-08-04T04:35:12.544Z,2.90
2022-08-04T04:38:36.188Z,3.00
2022-08-04T04:41:26.204Z,2.90
2022-08-04T04:44:30.559Z,2.90
2022-08-04T04:47:43.049Z,3.10
2022-08-04T04:50:32.548Z,3.00
2022-08-04T04:53:25.767Z,3.00
2022-08-04T04:56:06.036Z,3.00
2022-08-04T04:58:35.375Z,3.40
2022-08-04T05:01:30.445Z,2.90
2022-08-04T05:04:08.535Z,2.80
2022-08-04T05:06:56.865Z,3.20
2022-08-04T05:09:54.938Z,3.20
2022-08-04T05:13:05.235Z,3.30
2022-08-04T05:15:29.280Z,3.10
2022-08-04T05:17:59.859Z,3.30
2022-08-04T05:20:34.962Z,2.80
2022-08-04T05:23:13.582Z,2.90
2022-08-04T05:25:58.489Z,3.10
2022-08-04T05:28:54.869Z,3.30
2022-08-04T05:31:37.526Z,3.90
2022-08-04T05:34:24.315Z,3.50
2022-08-04T05:36:56.602Z,3.20
2022-08-04T05:39:32.312Z,2.90
2022-08-04T05:42:04.364Z,2.80
2022-08-04T05:44:34.046Z,3.10
2022-08-04T05:47:04.197Z,3.20
2022-08-04T05:49:32.947Z,3.10
2022-08-04T05:52:03.099Z,3.30
2022-08-04T05:54:34.978Z,3.40
2022-08-04T05:57:05.112Z,3.50
2022-08-04T05:59:34.451Z,3.00
2022-08-04T06:02:03.062Z,3.40
2022-08-04T06:04:39.954Z,3.60
2022-08-04T06:07:08.085Z,3.60
2022-08-04T06:09:35.040Z,3.40
2022-08-04T06:12:09.323Z,3.10
2022-08-04T06:14:44.636Z,3.20
2022-08-04T06:18:32.362Z,3.20
2022-08-04T06:20:19.956Z,3.60
2022-08-04T06:22:59.324Z,3.70
2022-08-04T06:25:33.499Z,4.10
2022-08-04T06:28:02.265Z,3.80
2022-08-04T06:30:32.676Z,4.00
2022-08-04T06:33:05.169Z,3.90
2022-08-04T06:35:33.798Z,4.70
2022-08-04T06:38:02.077Z,4.50
2022-08-04T06:40:33.319Z,4.70
2022-08-04T06:43:06.990Z,5.90
2022-08-04T06:45:38.184Z,7.10
2022-08-04T06:48:07.043Z,9.40
2022-08-04T06:51:32.066Z,7.00
2022-08-04T06:53:26.347Z,7.20
2022-08-04T06:55:54.912Z,7.60
2022-08-04T06:58:23.325Z,7.30
2022-08-04T07:00:51.670Z,8.20
2022-08-04T07:03:21.915Z,19.60
2022-08-04T07:05:50.072Z,12.20
2022-08-04T07:08:17.185Z,9.90
2022-08-04T07:10:45.244Z,10.60
2022-08-04T07:13:13.371Z,11.90
2022-08-04T07:15:45.431Z,12.10
2022-08-04T07:18:12.256Z,11.40
2022-08-04T07:20:46.480Z,12.70
2022-08-04T07:23:19.787Z,12.50
2022-08-04T07:26:11.896Z,11.00
2022-08-04T07:28:41.781Z,8.70
2022-08-04T07:31:34.572Z,7.60
2022-08-04T07:34:17.009Z,6.40
2022-08-04T07:36:52.765Z,12.90
2022-08-04T07:39:28.743Z,4.70
2022-08-04T07:42:02.306Z,4.00
2022-08-04T07:44:34.041Z,3.70
2022-08-04T07:47:07.096Z,3.80
2022-08-04T07:49:55.964Z,3.60
2022-08-04T07:52:22.695Z,3.70
2022-08-04T07:54:51.719Z,3.80
2022-08-04T07:57:41.299Z,3.90
2022-08-04T08:00:08.801Z,12.90
2022-08-04T08:02:43.801Z,4.60
2022-08-04T08:05:13.952Z,4.60
2022-08-04T08:07:50.481Z,5.10
2022-08-04T08:10:21.871Z,6.60
2022-08-04T08:12:52.317Z,7.50
2022-08-04T08:15:20.646Z,9.40
2022-08-04T08:17:57.709Z,9.60
2022-08-04T08:20:31.447Z,11.00
2022-08-04T08:23:01.435Z,11.90
2022-08-04T08:25:30.367Z,13.30
2022-08-04T08:27:57.037Z,14.90
2022-08-04T08:30:31.866Z,15.20
2022-08-04T08:33:07.959Z,17.20
2022-08-04T08:35:56.855Z,18.70
2022-08-04T08:39:01.706Z,18.50
2022-08-04T08:42:02.212Z,23.60
2022-08-04T08:45:17.697Z,22.90
2022-08-04T08:48:22.913Z,22.30
2022-08-04T08:51:47.539Z,27.00
2022-08-04T08:54:21.464Z,27.80
2022-08-04T08:57:00.459Z,28.70
2022-08-04T09:00:10.541Z,33.20
2022-08-04T09:02:46.319Z,26.00
2022-08-04T09:05:47.260Z,30.10
2022-08-04T09:08:31.862Z,37.50
2022-08-04T09:11:20.334Z,36.30
2022-08-04T09:14:01.511Z,39.10
2022-08-04T09:16:42.803Z,40.30
2022-08-04T09:19:39.054Z,41.40
2022-08-04T09:22:15.331Z,44.90
2022-08-04T09:24:58.725Z,44.10
2022-08-04T09:27:55.674Z,43.80
2022-08-04T09:30:33.248Z,37.70
2022-08-04T09:33:45.540Z,39.20
2022-08-04T09:36:38.055Z,38.90
2022-08-04T09:39:30.797Z,39.20
2022-08-04T09:42:38.298Z,33.70
2022-08-04T09:45:26.025Z,28.10
2022-08-04T09:48:01.447Z,22.50
2022-08-04T09:50:49.951Z,45.50
2022-08-04T09:53:50.436Z,18.10
2022-08-04T09:56:32.758Z,16.00
2022-08-04T09:59:19.350Z,11.40
2022-08-04T10:01:59.839Z,9.90
2022-08-04T10:04:31.553Z,9.10
2022-08-04T10:07:07.287Z,8.20
2022-08-04T10:09:58.236Z,7.70
2022-08-04T10:12:24.853Z,6.30
2022-08-04T10:15:19.973Z,6.40
2022-08-04T10:18:34.183Z,5.30
2022-08-04T10:21:16.539Z,4.50
2022-08-04T10:24:20.491Z,4.20
2022-08-04T10:26:58.212Z,20.00
2022-08-04T10:29:46.690Z,5.20
2022-08-04T10:32:29.686Z,4.30
2022-08-04T10:35:14.396Z,3.60
2022-08-04T10:38:01.417Z,3.40
2022-08-04T10:40:36.698Z,3.00
2022-08-04T10:43:22.327Z,2.80
2022-08-04T10:46:06.738Z,2.60
2022-08-04T10:49:02.421Z,2.60
2022-08-04T10:51:58.642Z,3.10
2022-08-04T10:54:48.328Z,3.20
2022-08-04T10:57:46.449Z,2.90
2022-08-04T11:00:26.192Z,2.90
2022-08-04T11:03:15.717Z,2.90
2022-08-04T11:05:50.658Z,2.30
2022-08-04T11:08:26.567Z,2.50
2022-08-04T11:11:27.073Z,3.10
2022-08-04T11:14:11.958Z,4.00
2022-08-04T11:16:58.239Z,2.80
2022-08-04T11:19:55.805Z,2.70
2022-08-04T11:22:31.229Z,2.80
2022-08-04T11:25:21.790Z,2.70
2022-08-04T11:28:03.908Z,2.30
2022-08-04T11:30:41.799Z,2.60
2022-08-04T11:33:23.940Z,2.60
2022-08-04T11:36:34.730Z,2.90
2022-08-04T11:39:30.732Z,2.60
2022-08-04T11:42:07.350Z,2.50
2022-08-04T11:45:06.310Z,2.30
2022-08-04T11:47:45.632Z,2.50
2022-08-04T11:50:24.794Z,2.60
2022-08-04T11:52:54.005Z,2.80
2022-08-04T11:55:23.083Z,2.80
2022-08-04T11:57:53.973Z,2.50
2022-08-04T12:00:23.053Z,7.70
2022-08-04T12:02:55.606Z,2.60
2022-08-04T12:05:36.527Z,2.40
2022-08-04T12:08:29.775Z,2.40
2022-08-04T12:11:12.787Z,2.80
2022-08-04T12:13:50.695Z,3.80
2022-08-04T12:16:30.225Z,2.60
2022-08-04T12:19:16.455Z,2.90
2022-08-04T12:21:53.407Z,2.70
2022-08-04T12:24:32.075Z,3.00
2022-08-04T12:27:08.752Z,2.50
2022-08-04T12:29:37.521Z,2.70
2022-08-04T12:32:24.427Z,2.30
2022-08-04T12:35:09.829Z,2.90
2022-08-04T12:38:06.942Z,2.80
2022-08-04T12:40:41.343Z,2.80
2022-08-04T12:43:20.279Z,2.40
2022-08-04T12:45:53.291Z,2.90
2022-08-04T12:48:22.935Z,2.70
2022-08-04T12:50:56.080Z,2.50
2022-08-04T12:53:32.569Z,2.40
2022-08-04T12:56:01.729Z,2.80
2022-08-04T12:58:44.132Z,2.80
2022-08-04T13:02:09.582Z,2.70
2022-08-04T13:04:29.306Z,2.60
2022-08-04T13:07:14.071Z,2.40
2022-08-04T13:09:41.345Z,2.30
2022-08-04T13:12:17.633Z,3.00
2022-08-04T13:14:45.756Z,2.80
2022-08-04T13:17:12.717Z,2.00
2022-08-04T13:19:46.829Z,2.10
2022-08-04T13:22:29.127Z,2.40
2022-08-04T13:26:40.363Z,2.60
2022-08-04T13:27:48.232Z,2.90
2022-08-04T13:30:23.145Z,2.50
2022-08-04T13:32:56.672Z,2.60
2022-08-04T13:35:55.970Z,2.30
2022-08-04T13:38:16.600Z,2.60
2022-08-04T13:40:44.990Z,2.60
2022-08-04T13:44:16.431Z,2.40
2022-08-04T13:46:28.267Z,2.40
2022-08-04T13:49:28.429Z,2.50
2022-08-04T13:52:00.164Z,1.80
2022-08-04T13:54:42.889Z,2.50
2022-08-04T13:57:23.986Z,3.00
2022-08-04T13:59:56.390Z,2.30
2022-08-04T14:02:45.049Z,2.70
2022-08-04T14:05:27.435Z,2.80
2022-08-04T14:08:25.220Z,2.70
2022-08-04T14:10:57.877Z,2.70
2022-08-04T14:13:41.069Z,2.60
2022-08-04T14:16:21.432Z,1.90
2022-08-04T14:18:58.279Z,2.70
2022-08-04T14:21:25.141Z,2.50
2022-08-04T14:23:54.117Z,2.70
2022-08-04T14:26:33.657Z,2.40
2022-08-04T14:29:27.574Z,2.40
2022-08-04T14:32:12.553Z,2.70
2022-08-04T14:34:46.250Z,2.60
2022-08-04T14:37:20.315Z,2.20
2022-08-04T14:40:17.680Z,2.50
2022-08-04T14:42:54.496Z,2.80
2022-08-04T14:45:54.020Z,2.20
2022-08-04T14:48:21.909Z,3.30
2022-08-04T14:50:50.517Z,2.50
2022-08-04T14:53:22.233Z,2.50
2022-08-04T14:55:56.365Z,2.80
2022-08-04T14:58:37.923Z,2.90
2022-08-04T15:01:10.347Z,3.10
2022-08-04T15:03:50.630Z,2.80
2022-08-04T15:06:28.888Z,2.20
2022-08-04T15:09:03.807Z,2.60
2022-08-04T15:11:30.758Z,2.20
2022-08-04T15:13:58.758Z,2.70
2022-08-04T15:16:32.059Z,2.60
2022-08-04T15:19:01.011Z,2.60
2022-08-04T15:21:29.823Z,2.50
2022-08-04T15:23:58.002Z,2.40
2022-08-04T15:26:43.705Z,2.40
2022-08-04T15:29:26.052Z,2.70
2022-08-04T15:32:06.047Z,2.60
2022-08-04T15:34:46.327Z,2.60
2022-08-04T15:37:22.932Z,2.30
2022-08-04T15:40:04.626Z,2.60
2022-08-04T15:42:41.476Z,2.20
2022-08-04T15:45:23.637Z,2.60
2022-08-04T15:48:13.135Z,2.40
2022-08-04T15:50:58.551Z,2.70
2022-08-04T15:54:02.840Z,2.70
2022-08-04T15:56:30.972Z,2.50
2022-08-04T15:58:58.702Z,2.70
2022-08-04T16:01:27.756Z,2.20
2022-08-04T16:04:00.938Z,2.10
2022-08-04T16:06:29.680Z,2.30
2022-08-04T16:09:05.288Z,2.30
2022-08-04T16:11:40.123Z,2.30
2022-08-04T16:14:11.201Z,2.50
2022-08-04T16:16:41.187Z,2.40
2022-08-04T16:19:22.950Z,2.30
2022-08-04T16:21:56.242Z,2.40
2022-08-04T16:24:40.243Z,2.50
2022-08-04T16:27:12.612Z,2.60
2022-08-04T16:29:44.806Z,2.40
2022-08-04T16:32:15.821Z,2.10
2022-08-04T16:35:04.321Z,2.10
2022-08-04T16:37:38.476Z,1.90
2022-08-04T16:40:34.081Z,2.30
2022-08-04T16:43:19.160Z,2.30
2022-08-04T16:45:59.235Z,2.10
2022-08-04T16:48:32.157Z,2.30
2022-08-04T16:51:06.679Z,2.60
2022-08-04T16:54:03.172Z,2.30
2022-08-04T16:56:34.423Z,2.30
2022-08-04T16:59:10.135Z,2.30
2022-08-04T17:01:39.147Z,2.40
2022-08-04T17:04:06.591Z,2.20
2022-08-04T17:06:42.620Z,2.20
2022-08-04T17:09:17.042Z,2.30
2022-08-04T17:11:46.604Z,2.50
2022-08-04T17:14:14.124Z,2.40
2022-08-04T17:16:43.087Z,2.70
2022-08-04T17:19:23.784Z,2.90
2022-08-04T17:22:05.305Z,2.50
2022-08-04T17:24:35.282Z,3.30
2022-08-04T17:27:04.304Z,3.00
2022-08-04T17:29:49.858Z,2.60
2022-08-04T17:32:17.165Z,3.30
2022-08-04T17:34:49.065Z,2.50
2022-08-04T17:40:25.482Z,3.10
2022-08-04T17:44:02.868Z,11.90
2022-08-04T17:46:29.217Z,3.00
2022-08-04T17:48:59.594Z,5.30
2022-08-04T17:52:06.822Z,3.20
2022-08-04T17:54:40.168Z,3.10
2022-08-04T17:57:21.409Z,3.50
2022-08-04T18:00:00.315Z,6.00
2022-08-04T18:02:34.506Z,5.00
2022-08-04T18:05:11.718Z,5.00
2022-08-04T18:08:38.462Z,3.70
2022-08-04T18:10:55.562Z,6.90
2022-08-04T18:13:27.714Z,6.40
2022-08-04T18:16:05.276Z,8.90
2022-08-04T18:18:33.106Z,4.60
2022-08-04T18:23:51.038Z,7.00
2022-08-04T18:26:18.143Z,5.20
2022-08-04T18:28:50.884Z,6.30
2022-08-04T18:31:17.516Z,7.40
2022-08-04T18:33:44.214Z,6.20
2022-08-04T18:36:33.516Z,5.00
2022-08-04T18:39:12.533Z,5.20
2022-08-04T18:42:02.214Z,4.00
2022-08-04T18:44:32.422Z,4.70
2022-08-04T18:47:22.177Z,5.70
2022-08-04T18:50:59.727Z,7.00
2022-08-04T18:52:34.871Z,7.80
2022-08-04T18:55:02.213Z,5.20
2022-08-04T18:58:01.142Z,3.90
2022-08-04T19:00:20.321Z,3.70
2022-08-04T19:02:47.507Z,3.50
2022-08-04T19:05:17.050Z,3.80
2022-08-04T19:08:02.159Z,4.00
2022-08-04T19:10:31.681Z,4.10
2022-08-04T19:12:59.440Z,3.80
2022-08-04T19:15:34.699Z,4.10
2022-08-04T19:18:06.879Z,3.90
2022-08-04T19:20:34.305Z,4.00
2022-08-04T19:24:29.286Z,4.10
2022-08-04T19:26:02.450Z,5.00
2022-08-04T19:28:36.267Z,4.20
2022-08-04T19:31:09.969Z,4.00
2022-08-04T19:33:58.710Z,4.30
2022-08-04T19:36:29.587Z,7.80
2022-08-04T19:39:00.202Z,7.60
2022-08-04T19:41:31.152Z,4.70
2022-08-04T19:43:58.161Z,4.80
2022-08-04T19:46:28.510Z,4.10
2022-08-04T19:48:58.929Z,4.30
2022-08-04T19:51:30.310Z,4.60
2022-08-04T19:54:04.343Z,4.50
2022-08-04T19:56:41.843Z,3.90
2022-08-04T19:59:10.348Z,4.00
2022-08-04T20:01:44.217Z,4.60
2022-08-04T20:04:14.423Z,3.80
2022-08-04T20:06:42.635Z,3.70
2022-08-04T20:09:25.499Z,4.10
2022-08-04T20:11:58.142Z,4.10
2022-08-04T20:14:31.607Z,4.60
2022-08-04T20:17:10.431Z,4.50
2022-08-04T20:19:38.952Z,4.50
2022-08-04T20:22:08.564Z,4.00
2022-08-04T20:25:00.929Z,4.20
2022-08-04T20:28:00.054Z,4.30
2022-08-04T20:30:29.963Z,4.90
2022-08-04T20:32:58.316Z,5.30
2022-08-04T20:35:27.111Z,4.70
2022-08-04T20:38:00.148Z,4.50
2022-08-04T20:40:27.596Z,5.10
2022-08-04T20:42:54.188Z,4.90
2022-08-04T20:45:24.100Z,5.30
2022-08-04T20:48:10.708Z,4.90
2022-08-04T20:50:37.501Z,5.00
2022-08-04T20:53:16.291Z,5.10
2022-08-04T20:55:55.794Z,5.00
2022-08-04T20:58:27.522Z,5.00
2022-08-04T21:00:56.133Z,4.60
2022-08-04T21:03:49.596Z,4.90
2022-08-04T21:06:10.808Z,4.40
2022-08-04T21:08:37.728Z,4.60
2022-08-04T21:11:06.818Z,4.20
2022-08-04T21:13:52.432Z,4.30
2022-08-04T21:16:55.744Z,4.50
2022-08-04T21:19:13.035Z,4.40
2022-08-04T21:21:41.612Z,4.10
2022-08-04T21:24:09.515Z,4.30
2022-08-04T21:26:37.501Z,4.20
2022-08-04T21:29:04.841Z,4.30
2022-08-04T21:31:42.367Z,4.70
2022-08-04T21:34:39.711Z,4.30
2022-08-04T21:37:04.637Z,4.30
2022-08-04T21:39:32.740Z,4.10
2022-08-04T21:42:27.769Z,4.40
2022-08-04T21:44:57.153Z,4.60
2022-08-04T21:50:10.505Z,4.70
2022-08-04T21:52:37.187Z,4.30
2022-08-04T21:55:04.119Z,4.70
2022-08-04T21:57:30.767Z,4.80
2022-08-04T21:59:59.097Z,4.90
2022-08-04T22:02:26.943Z,4.70
2022-08-04T22:04:54.299Z,4.00
2022-08-04T22:07:23.127Z,4.40
2022-08-04T22:10:00.566Z,4.50
2022-08-04T22:12:31.101Z,4.50
2022-08-04T22:15:00.963Z,4.60
2022-08-04T22:17:35.135Z,4.40
2022-08-04T22:20:04.400Z,4.40
2022-08-04T22:22:35.741Z,4.20
2022-08-04T22:25:13.418Z,4.40
2022-08-04T22:28:02.561Z,4.70
2022-08-04T22:30:37.618Z,4.60
2022-08-04T22:33:08.711Z,4.30
2022-08-04T22:35:49.045Z,4.70
2022-08-04T22:38:24.421Z,4.70
2022-08-04T22:41:02.012Z,4.60
2022-08-04T22:43:33.648Z,4.80
2022-08-04T22:46:05.055Z,4.40
2022-08-04T22:48:38.532Z,4.60
2022-08-04T22:51:07.480Z,4.60
2022-08-04T22:53:35.465Z,5.20
2022-08-04T22:56:09.988Z,5.10
2022-08-04T22:58:45.549Z,4.50
2022-08-04T23:01:17.522Z,4.80
2022-08-04T23:03:50.940Z,4.60
2022-08-04T23:06:24.448Z,4.70
2022-08-04T23:08:52.574Z,4.60
2022-08-04T23:11:19.487Z,4.50
2022-08-04T23:13:47.320Z,4.60
2022-08-04T23:16:17.795Z,4.80
2022-08-04T23:18:48.362Z,4.90
2022-08-04T23:21:17.477Z,4.80
2022-08-04T23:24:01.007Z,4.70
2022-08-04T23:26:30.573Z,4.90
2022-08-04T23:28:57.979Z,4.80
2022-08-04T23:31:25.394Z,5.90
2022-08-04T23:34:08.449Z,4.40
2022-08-04T23:36:35.524Z,4.60
2022-08-04T23:39:05.711Z,4.70
2022-08-04T23:41:54.367Z,5.30
2022-08-04T23:44:25.221Z,4.40
2022-08-04T23:47:04.586Z,4.40
2022-08-04T23:49:40.750Z,4.70
2022-08-04T23:52:23.602Z,4.50
2022-08-04T23:54:59.208Z,4.80
2022-08-04T23:58:05.161Z,5.10
